sensor_id;sensor_type;location;lat;lon;timestamp;P1;durP1;ratioP1;P2;durP2;ratioP2
83094;SDS011;72967;43.674;6.976;2024-02-15T00:00:03;3.90;;;3.30;;
83094;SDS011;72967;43.674;6.976;2024-02-15T00:02:29;6.22;;;3.60;;
83094;SDS011;72967;43.674;6.976;2024-02-15T00:04:55;8.23;;;4.43;;
83094;SDS011;72967;43.674;6.976;2024-02-15T00:07:21;6.63;;;4.07;;
83094;SDS011;72967;43.674;6.976;2024-02-15T00:09:48;5.93;;;3.85;;
83094;SDS011;72967;43.674;6.976;2024-02-15T00:12:13;5.68;;;4.40;;
83094;SDS011;72967;43.674;6.976;2024-02-15T00:14:39;7.43;;;4.55;;
83094;SDS011;72967;43.674;6.976;2024-02-15T00:17:05;5.32;;;4.13;;
83094;SDS011;72967;43.674;6.976;2024-02-15T00:19:30;7.75;;;4.00;;
83094;SDS011;72967;43.674;6.976;2024-02-15T00:21:56;8.05;;;4.28;;
83094;SDS011;72967;43.674;6.976;2024-02-15T00:24:22;9.60;;;4.22;;
83094;SDS011;72967;43.674;6.976;2024-02-15T00:26:49;8.95;;;4.47;;
83094;SDS011;72967;43.674;6.976;2024-02-15T00:29:14;8.00;;;4.70;;
83094;SDS011;72967;43.674;6.976;2024-02-15T00:31:40;5.85;;;5.30;;
83094;SDS011;72967;43.674;6.976;2024-02-15T00:34:05;8.25;;;5.28;;
83094;SDS011;72967;43.674;6.976;2024-02-15T00:36:31;9.45;;;5.55;;
83094;SDS011;72967;43.674;6.976;2024-02-15T00:39:00;7.20;;;6.25;;
83094;SDS011;72967;43.674;6.976;2024-02-15T00:41:25;8.80;;;5.25;;
83094;SDS011;72967;43.674;6.976;2024-02-15T00:43:50;7.30;;;5.32;;
83094;SDS011;72967;43.674;6.976;2024-02-15T00:46:16;7.88;;;5.45;;
83094;SDS011;72967;43.674;6.976;2024-02-15T00:48:41;7.43;;;4.93;;
83094;SDS011;72967;43.674;6.976;2024-02-15T00:51:07;6.95;;;5.00;;
83094;SDS011;72967;43.674;6.976;2024-02-15T00:53:33;4.88;;;3.90;;
83094;SDS011;72967;43.674;6.976;2024-02-15T00:55:58;7.85;;;3.95;;
83094;SDS011;72967;43.674;6.976;2024-02-15T00:58:24;9.75;;;5.57;;
83094;SDS011;72967;43.674;6.976;2024-02-15T01:00:52;4.60;;;3.97;;
83094;SDS011;72967;43.674;6.976;2024-02-15T01:03:18;8.13;;;4.40;;
83094;SDS011;72967;43.674;6.976;2024-02-15T01:05:44;8.10;;;4.70;;
83094;SDS011;72967;43.674;6.976;2024-02-15T01:08:10;7.95;;;4.32;;
83094;SDS011;72967;43.674;6.976;2024-02-15T01:10:36;6.63;;;4.78;;
83094;SDS011;72967;43.674;6.976;2024-02-15T01:13:02;6.55;;;4.38;;
83094;SDS011;72967;43.674;6.976;2024-02-15T01:15:27;7.85;;;4.63;;
83094;SDS011;72967;43.674;6.976;2024-02-15T01:17:52;6.68;;;4.40;;
83094;SDS011;72967;43.674;6.976;2024-02-15T01:20:18;6.32;;;4.38;;
83094;SDS011;72967;43.674;6.976;2024-02-15T01:22:43;7.85;;;4.20;;
83094;SDS011;72967;43.674;6.976;2024-02-15T01:25:12;8.02;;;5.57;;
83094;SDS011;72967;43.674;6.976;2024-02-15T01:27:40;7.60;;;5.18;;
83094;SDS011;72967;43.674;6.976;2024-02-15T01:30:06;5.88;;;4.45;;
83094;SDS011;72967;43.674;6.976;2024-02-15T01:32:33;5.47;;;4.47;;
83094;SDS011;72967;43.674;6.976;2024-02-15T01:34:58;6.53;;;4.80;;
83094;SDS011;72967;43.674;6.976;2024-02-15T01:37:24;6.80;;;4.45;;
83094;SDS011;72967;43.674;6.976;2024-02-15T01:39:49;6.03;;;4.35;;
83094;SDS011;72967;43.674;6.976;2024-02-15T01:42:16;8.05;;;4.18;;
83094;SDS011;72967;43.674;6.976;2024-02-15T01:44:41;7.05;;;3.78;;
83094;SDS011;72967;43.674;6.976;2024-02-15T01:47:09;6.63;;;4.32;;
83094;SDS011;72967;43.674;6.976;2024-02-15T01:49:35;6.57;;;4.03;;
83094;SDS011;72967;43.674;6.976;2024-02-15T01:52:01;7.63;;;3.85;;
83094;SDS011;72967;43.674;6.976;2024-02-15T01:54:29;6.13;;;3.97;;
83094;SDS011;72967;43.674;6.976;2024-02-15T01:56:56;7.03;;;3.85;;
83094;SDS011;72967;43.674;6.976;2024-02-15T01:59:23;5.93;;;3.90;;
83094;SDS011;72967;43.674;6.976;2024-02-15T02:01:50;8.93;;;4.15;;
83094;SDS011;72967;43.674;6.976;2024-02-15T02:04:16;8.25;;;3.95;;
83094;SDS011;72967;43.674;6.976;2024-02-15T02:06:41;6.28;;;3.20;;
83094;SDS011;72967;43.674;6.976;2024-02-15T02:09:10;5.35;;;2.80;;
83094;SDS011;72967;43.674;6.976;2024-02-15T02:11:39;4.28;;;2.03;;
83094;SDS011;72967;43.674;6.976;2024-02-15T02:14:09;5.47;;;2.70;;
83094;SDS011;72967;43.674;6.976;2024-02-15T02:16:36;5.00;;;2.60;;
83094;SDS011;72967;43.674;6.976;2024-02-15T02:19:02;3.35;;;2.15;;
83094;SDS011;72967;43.674;6.976;2024-02-15T02:21:28;6.43;;;2.72;;
83094;SDS011;72967;43.674;6.976;2024-02-15T02:23:57;4.38;;;2.45;;
83094;SDS011;72967;43.674;6.976;2024-02-15T02:26:24;3.38;;;2.10;;
83094;SDS011;72967;43.674;6.976;2024-02-15T02:28:51;2.60;;;2.08;;
83094;SDS011;72967;43.674;6.976;2024-02-15T02:31:20;2.95;;;2.20;;
83094;SDS011;72967;43.674;6.976;2024-02-15T02:33:50;3.40;;;1.95;;
83094;SDS011;72967;43.674;6.976;2024-02-15T02:38:44;3.95;;;2.25;;
83094;SDS011;72967;43.674;6.976;2024-02-15T02:41:13;3.85;;;3.13;;
83094;SDS011;72967;43.674;6.976;2024-02-15T02:43:42;5.32;;;2.63;;
83094;SDS011;72967;43.674;6.976;2024-02-15T02:46:10;4.25;;;2.70;;
83094;SDS011;72967;43.674;6.976;2024-02-15T02:48:37;3.35;;;2.63;;
83094;SDS011;72967;43.674;6.976;2024-02-15T02:51:03;3.95;;;2.42;;
83094;SDS011;72967;43.674;6.976;2024-02-15T02:53:28;6.43;;;2.80;;
83094;SDS011;72967;43.674;6.976;2024-02-15T02:55:55;4.72;;;3.13;;
83094;SDS011;72967;43.674;6.976;2024-02-15T02:58:21;5.55;;;2.97;;
83094;SDS011;72967;43.674;6.976;2024-02-15T03:00:48;8.45;;;4.35;;
83094;SDS011;72967;43.674;6.976;2024-02-15T03:03:14;3.65;;;3.03;;
83094;SDS011;72967;43.674;6.976;2024-02-15T03:05:40;4.03;;;3.30;;
83094;SDS011;72967;43.674;6.976;2024-02-15T03:08:07;6.03;;;3.33;;
83094;SDS011;72967;43.674;6.976;2024-02-15T03:10:34;5.40;;;3.90;;
83094;SDS011;72967;43.674;6.976;2024-02-15T03:12:59;4.22;;;3.25;;
83094;SDS011;72967;43.674;6.976;2024-02-15T03:15:25;3.97;;;3.60;;
83094;SDS011;72967;43.674;6.976;2024-02-15T03:17:50;3.65;;;2.05;;
83094;SDS011;72967;43.674;6.976;2024-02-15T03:20:16;2.65;;;2.45;;
83094;SDS011;72967;43.674;6.976;2024-02-15T03:22:55;3.58;;;2.03;;
83094;SDS011;72967;43.674;6.976;2024-02-15T03:25:23;4.78;;;2.42;;
83094;SDS011;72967;43.674;6.976;2024-02-15T03:27:54;4.40;;;2.47;;
83094;SDS011;72967;43.674;6.976;2024-02-15T03:30:24;6.05;;;3.00;;
83094;SDS011;72967;43.674;6.976;2024-02-15T03:32:54;5.18;;;3.90;;
83094;SDS011;72967;43.674;6.976;2024-02-15T03:35:20;5.80;;;3.30;;
83094;SDS011;72967;43.674;6.976;2024-02-15T03:37:50;5.22;;;4.32;;
83094;SDS011;72967;43.674;6.976;2024-02-15T03:40:16;7.28;;;5.05;;
83094;SDS011;72967;43.674;6.976;2024-02-15T03:42:43;10.15;;;7.50;;
83094;SDS011;72967;43.674;6.976;2024-02-15T03:45:09;7.70;;;6.30;;
83094;SDS011;72967;43.674;6.976;2024-02-15T03:47:35;7.93;;;6.13;;
83094;SDS011;72967;43.674;6.976;2024-02-15T03:50:05;7.38;;;4.55;;
83094;SDS011;72967;43.674;6.976;2024-02-15T03:52:31;6.85;;;4.32;;
83094;SDS011;72967;43.674;6.976;2024-02-15T03:54:58;6.07;;;4.50;;
83094;SDS011;72967;43.674;6.976;2024-02-15T03:57:24;4.82;;;3.72;;
83094;SDS011;72967;43.674;6.976;2024-02-15T03:59:50;4.25;;;3.85;;
83094;SDS011;72967;43.674;6.976;2024-02-15T04:02:18;3.83;;;3.03;;
83094;SDS011;72967;43.674;6.976;2024-02-15T04:04:44;3.33;;;2.95;;
83094;SDS011;72967;43.674;6.976;2024-02-15T04:07:12;3.88;;;2.15;;
83094;SDS011;72967;43.674;6.976;2024-02-15T04:09:39;3.17;;;2.35;;
83094;SDS011;72967;43.674;6.976;2024-02-15T04:12:05;2.45;;;1.70;;
83094;SDS011;72967;43.674;6.976;2024-02-15T04:14:32;2.42;;;1.70;;
83094;SDS011;72967;43.674;6.976;2024-02-15T04:16:59;2.65;;;1.88;;
83094;SDS011;72967;43.674;6.976;2024-02-15T04:19:25;2.10;;;1.88;;
83094;SDS011;72967;43.674;6.976;2024-02-15T04:21:50;2.63;;;1.80;;
83094;SDS011;72967;43.674;6.976;2024-02-15T04:24:16;3.60;;;2.10;;
83094;SDS011;72967;43.674;6.976;2024-02-15T04:26:42;2.83;;;2.10;;
83094;SDS011;72967;43.674;6.976;2024-02-15T04:29:07;3.78;;;2.47;;
83094;SDS011;72967;43.674;6.976;2024-02-15T04:31:34;4.88;;;2.35;;
83094;SDS011;72967;43.674;6.976;2024-02-15T04:34:02;2.95;;;2.65;;
83094;SDS011;72967;43.674;6.976;2024-02-15T04:36:28;3.47;;;2.47;;
83094;SDS011;72967;43.674;6.976;2024-02-15T04:38:58;3.60;;;2.88;;
83094;SDS011;72967;43.674;6.976;2024-02-15T04:41:24;6.95;;;3.60;;
83094;SDS011;72967;43.674;6.976;2024-02-15T04:43:50;5.47;;;3.95;;
83094;SDS011;72967;43.674;6.976;2024-02-15T04:46:16;5.25;;;3.22;;
83094;SDS011;72967;43.674;6.976;2024-02-15T04:48:42;4.40;;;3.17;;
83094;SDS011;72967;43.674;6.976;2024-02-15T04:51:08;5.15;;;3.85;;
83094;SDS011;72967;43.674;6.976;2024-02-15T04:53:35;5.78;;;3.55;;
83094;SDS011;72967;43.674;6.976;2024-02-15T04:56:01;3.80;;;3.38;;
83094;SDS011;72967;43.674;6.976;2024-02-15T04:58:32;3.53;;;2.85;;
83094;SDS011;72967;43.674;6.976;2024-02-15T05:01:01;5.38;;;2.97;;
83094;SDS011;72967;43.674;6.976;2024-02-15T05:03:29;3.97;;;3.20;;
83094;SDS011;72967;43.674;6.976;2024-02-15T05:05:59;7.05;;;3.42;;
83094;SDS011;72967;43.674;6.976;2024-02-15T05:08:25;3.75;;;2.92;;
83094;SDS011;72967;43.674;6.976;2024-02-15T05:10:51;5.30;;;3.30;;
83094;SDS011;72967;43.674;6.976;2024-02-15T05:15:46;5.97;;;2.70;;
83094;SDS011;72967;43.674;6.976;2024-02-15T05:18:12;5.70;;;3.20;;
83094;SDS011;72967;43.674;6.976;2024-02-15T05:20:38;3.80;;;2.47;;
83094;SDS011;72967;43.674;6.976;2024-02-15T05:23:05;3.00;;;2.15;;
83094;SDS011;72967;43.674;6.976;2024-02-15T05:25:31;3.65;;;2.60;;
83094;SDS011;72967;43.674;6.976;2024-02-15T05:27:58;2.38;;;2.13;;
83094;SDS011;72967;43.674;6.976;2024-02-15T05:30:24;5.57;;;2.40;;
83094;SDS011;72967;43.674;6.976;2024-02-15T05:32:50;2.90;;;1.80;;
83094;SDS011;72967;43.674;6.976;2024-02-15T05:35:18;2.75;;;1.98;;
83094;SDS011;72967;43.674;6.976;2024-02-15T05:37:43;2.97;;;2.08;;
83094;SDS011;72967;43.674;6.976;2024-02-15T05:40:09;3.55;;;2.55;;
83094;SDS011;72967;43.674;6.976;2024-02-15T05:42:40;5.43;;;2.60;;
83094;SDS011;72967;43.674;6.976;2024-02-15T05:47:51;5.88;;;2.13;;
83094;SDS011;72967;43.674;6.976;2024-02-15T05:50:17;3.63;;;3.35;;
83094;SDS011;72967;43.674;6.976;2024-02-15T05:52:45;4.53;;;2.60;;
83094;SDS011;72967;43.674;6.976;2024-02-15T05:55:11;2.85;;;2.65;;
83094;SDS011;72967;43.674;6.976;2024-02-15T05:57:41;6.05;;;3.72;;
83094;SDS011;72967;43.674;6.976;2024-02-15T06:00:08;4.63;;;3.22;;
83094;SDS011;72967;43.674;6.976;2024-02-15T06:02:34;3.78;;;3.15;;
83094;SDS011;72967;43.674;6.976;2024-02-15T06:05:00;3.53;;;2.72;;
83094;SDS011;72967;43.674;6.976;2024-02-15T06:07:32;5.40;;;3.13;;
83094;SDS011;72967;43.674;6.976;2024-02-15T06:09:58;3.78;;;2.50;;
83094;SDS011;72967;43.674;6.976;2024-02-15T06:12:28;4.07;;;2.38;;
83094;SDS011;72967;43.674;6.976;2024-02-15T06:14:57;5.22;;;2.95;;
83094;SDS011;72967;43.674;6.976;2024-02-15T06:17:22;4.28;;;2.97;;
83094;SDS011;72967;43.674;6.976;2024-02-15T06:19:47;2.80;;;2.55;;
83094;SDS011;72967;43.674;6.976;2024-02-15T06:22:13;5.57;;;2.70;;
83094;SDS011;72967;43.674;6.976;2024-02-15T06:24:39;6.30;;;3.33;;
83094;SDS011;72967;43.674;6.976;2024-02-15T06:27:06;4.18;;;3.15;;
83094;SDS011;72967;43.674;6.976;2024-02-15T06:29:32;5.55;;;3.15;;
83094;SDS011;72967;43.674;6.976;2024-02-15T06:32:16;5.22;;;3.67;;
83094;SDS011;72967;43.674;6.976;2024-02-15T06:35:00;7.40;;;3.90;;
83094;SDS011;72967;43.674;6.976;2024-02-15T06:37:44;4.60;;;3.35;;
83094;SDS011;72967;43.674;6.976;2024-02-15T06:40:28;3.83;;;3.42;;
83094;SDS011;72967;43.674;6.976;2024-02-15T06:42:54;3.65;;;3.20;;
83094;SDS011;72967;43.674;6.976;2024-02-15T06:45:19;4.22;;;2.22;;
83094;SDS011;72967;43.674;6.976;2024-02-15T06:47:45;5.63;;;3.22;;
83094;SDS011;72967;43.674;6.976;2024-02-15T06:50:11;3.20;;;2.47;;
83094;SDS011;72967;43.674;6.976;2024-02-15T06:52:38;3.63;;;2.85;;
83094;SDS011;72967;43.674;6.976;2024-02-15T06:55:06;3.65;;;2.50;;
83094;SDS011;72967;43.674;6.976;2024-02-15T06:57:35;5.07;;;3.08;;
83094;SDS011;72967;43.674;6.976;2024-02-15T07:00:03;3.72;;;2.40;;
83094;SDS011;72967;43.674;6.976;2024-02-15T07:02:34;4.68;;;2.95;;
83094;SDS011;72967;43.674;6.976;2024-02-15T07:05:00;4.75;;;2.72;;
83094;SDS011;72967;43.674;6.976;2024-02-15T07:07:25;6.50;;;2.30;;
83094;SDS011;72967;43.674;6.976;2024-02-15T07:09:51;2.88;;;2.30;;
83094;SDS011;72967;43.674;6.976;2024-02-15T07:12:16;5.38;;;2.50;;
83094;SDS011;72967;43.674;6.976;2024-02-15T07:14:43;3.22;;;2.00;;
83094;SDS011;72967;43.674;6.976;2024-02-15T07:17:10;3.65;;;2.83;;
83094;SDS011;72967;43.674;6.976;2024-02-15T07:19:35;3.92;;;3.00;;
83094;SDS011;72967;43.674;6.976;2024-02-15T07:22:03;12.60;;;4.45;;
83094;SDS011;72967;43.674;6.976;2024-02-15T07:24:28;3.95;;;3.05;;
83094;SDS011;72967;43.674;6.976;2024-02-15T07:26:54;5.50;;;2.88;;
83094;SDS011;72967;43.674;6.976;2024-02-15T07:29:22;4.72;;;2.97;;
83094;SDS011;72967;43.674;6.976;2024-02-15T07:31:49;6.00;;;2.78;;
83094;SDS011;72967;43.674;6.976;2024-02-15T07:34:14;3.88;;;3.53;;
83094;SDS011;72967;43.674;6.976;2024-02-15T07:36:41;3.85;;;3.38;;
83094;SDS011;72967;43.674;6.976;2024-02-15T07:39:07;5.68;;;3.08;;
83094;SDS011;72967;43.674;6.976;2024-02-15T07:41:37;4.40;;;2.95;;
83094;SDS011;72967;43.674;6.976;2024-02-15T07:44:03;3.78;;;2.22;;
83094;SDS011;72967;43.674;6.976;2024-02-15T07:46:29;4.30;;;2.50;;
83094;SDS011;72967;43.674;6.976;2024-02-15T07:48:54;3.58;;;1.60;;
83094;SDS011;72967;43.674;6.976;2024-02-15T07:51:21;2.97;;;2.08;;
83094;SDS011;72967;43.674;6.976;2024-02-15T07:53:47;5.65;;;1.95;;
83094;SDS011;72967;43.674;6.976;2024-02-15T07:56:13;3.50;;;1.63;;
83094;SDS011;72967;43.674;6.976;2024-02-15T07:58:44;3.63;;;1.95;;
83094;SDS011;72967;43.674;6.976;2024-02-15T08:01:13;2.13;;;1.92;;
83094;SDS011;72967;43.674;6.976;2024-02-15T08:03:39;4.38;;;1.83;;
83094;SDS011;72967;43.674;6.976;2024-02-15T08:06:12;3.00;;;1.67;;
83094;SDS011;72967;43.674;6.976;2024-02-15T08:08:38;4.22;;;1.90;;
83094;SDS011;72967;43.674;6.976;2024-02-15T08:11:10;2.10;;;1.45;;
83094;SDS011;72967;43.674;6.976;2024-02-15T08:16:23;2.33;;;2.03;;
83094;SDS011;72967;43.674;6.976;2024-02-15T08:18:49;4.57;;;2.97;;
83094;SDS011;72967;43.674;6.976;2024-02-15T08:21:24;2.85;;;2.03;;
83094;SDS011;72967;43.674;6.976;2024-02-15T08:23:51;3.97;;;2.05;;
83094;SDS011;72967;43.674;6.976;2024-02-15T08:26:17;2.00;;;1.80;;
83094;SDS011;72967;43.674;6.976;2024-02-15T08:28:42;2.35;;;2.03;;
83094;SDS011;72967;43.674;6.976;2024-02-15T08:31:07;3.10;;;1.92;;
83094;SDS011;72967;43.674;6.976;2024-02-15T08:33:35;3.13;;;1.85;;
83094;SDS011;72967;43.674;6.976;2024-02-15T08:36:03;2.15;;;1.63;;
83094;SDS011;72967;43.674;6.976;2024-02-15T08:38:29;2.92;;;1.70;;
83094;SDS011;72967;43.674;6.976;2024-02-15T08:40:54;2.38;;;1.73;;
83094;SDS011;72967;43.674;6.976;2024-02-15T08:43:20;4.03;;;2.13;;
83094;SDS011;72967;43.674;6.976;2024-02-15T08:45:45;2.35;;;1.77;;
83094;SDS011;72967;43.674;6.976;2024-02-15T08:48:11;4.13;;;2.22;;
83094;SDS011;72967;43.674;6.976;2024-02-15T08:50:38;3.33;;;2.13;;
83094;SDS011;72967;43.674;6.976;2024-02-15T08:53:03;3.75;;;2.08;;
83094;SDS011;72967;43.674;6.976;2024-02-15T08:55:31;3.00;;;2.42;;
83094;SDS011;72967;43.674;6.976;2024-02-15T08:57:57;3.78;;;1.85;;
83094;SDS011;72967;43.674;6.976;2024-02-15T09:00:24;3.10;;;1.90;;
83094;SDS011;72967;43.674;6.976;2024-02-15T09:02:51;11.35;;;2.60;;
83094;SDS011;72967;43.674;6.976;2024-02-15T09:05:18;7.40;;;3.10;;
83094;SDS011;72967;43.674;6.976;2024-02-15T09:07:44;5.13;;;2.75;;
83094;SDS011;72967;43.674;6.976;2024-02-15T09:10:13;6.97;;;2.50;;
83094;SDS011;72967;43.674;6.976;2024-02-15T09:12:44;3.97;;;2.13;;
83094;SDS011;72967;43.674;6.976;2024-02-15T09:15:14;10.02;;;4.05;;
83094;SDS011;72967;43.674;6.976;2024-02-15T09:17:40;5.20;;;2.40;;
83094;SDS011;72967;43.674;6.976;2024-02-15T09:20:08;3.13;;;2.33;;
83094;SDS011;72967;43.674;6.976;2024-02-15T09:22:40;8.15;;;2.72;;
83094;SDS011;72967;43.674;6.976;2024-02-15T09:25:11;4.28;;;2.45;;
83094;SDS011;72967;43.674;6.976;2024-02-15T09:27:38;5.00;;;2.55;;
83094;SDS011;72967;43.674;6.976;2024-02-15T09:30:07;5.88;;;2.65;;
83094;SDS011;72967;43.674;6.976;2024-02-15T09:32:35;6.10;;;2.70;;
83094;SDS011;72967;43.674;6.976;2024-02-15T09:35:07;6.22;;;2.85;;
83094;SDS011;72967;43.674;6.976;2024-02-15T09:37:37;4.45;;;2.60;;
83094;SDS011;72967;43.674;6.976;2024-02-15T09:40:09;3.90;;;2.30;;
83094;SDS011;72967;43.674;6.976;2024-02-15T09:42:35;4.00;;;1.92;;
83094;SDS011;72967;43.674;6.976;2024-02-15T09:45:02;4.85;;;2.17;;
83094;SDS011;72967;43.674;6.976;2024-02-15T09:47:33;5.30;;;1.92;;
83094;SDS011;72967;43.674;6.976;2024-02-15T09:50:09;4.28;;;1.80;;
83094;SDS011;72967;43.674;6.976;2024-02-15T09:52:38;4.82;;;2.35;;
83094;SDS011;72967;43.674;6.976;2024-02-15T09:55:05;5.30;;;2.10;;
83094;SDS011;72967;43.674;6.976;2024-02-15T10:00:00;3.83;;;1.87;;
83094;SDS011;72967;43.674;6.976;2024-02-15T10:02:28;5.13;;;2.38;;
83094;SDS011;72967;43.674;6.976;2024-02-15T10:04:55;7.03;;;2.33;;
83094;SDS011;72967;43.674;6.976;2024-02-15T10:07:24;2.88;;;1.85;;
83094;SDS011;72967;43.674;6.976;2024-02-15T10:09:52;7.47;;;2.17;;
83094;SDS011;72967;43.674;6.976;2024-02-15T10:12:17;5.53;;;2.42;;
83094;SDS011;72967;43.674;6.976;2024-02-15T10:14:52;6.47;;;1.95;;
83094;SDS011;72967;43.674;6.976;2024-02-15T10:17:18;5.00;;;1.95;;
83094;SDS011;72967;43.674;6.976;2024-02-15T10:19:44;5.80;;;2.40;;
83094;SDS011;72967;43.674;6.976;2024-02-15T10:22:27;6.05;;;2.10;;
83094;SDS011;72967;43.674;6.976;2024-02-15T10:24:52;6.70;;;2.22;;
83094;SDS011;72967;43.674;6.976;2024-02-15T10:27:35;11.57;;;2.50;;
83094;SDS011;72967;43.674;6.976;2024-02-15T10:30:13;4.32;;;1.80;;
83094;SDS011;72967;43.674;6.976;2024-02-15T10:32:45;5.85;;;2.65;;
83094;SDS011;72967;43.674;6.976;2024-02-15T10:35:22;6.50;;;2.55;;
83094;SDS011;72967;43.674;6.976;2024-02-15T10:37:48;4.10;;;1.90;;
83094;SDS011;72967;43.674;6.976;2024-02-15T10:40:18;5.03;;;1.88;;
83094;SDS011;72967;43.674;6.976;2024-02-15T10:42:45;6.05;;;2.38;;
83094;SDS011;72967;43.674;6.976;2024-02-15T10:45:12;2.83;;;1.80;;
83094;SDS011;72967;43.674;6.976;2024-02-15T10:47:39;2.90;;;1.83;;
83094;SDS011;72967;43.674;6.976;2024-02-15T10:50:07;4.85;;;1.63;;
83094;SDS011;72967;43.674;6.976;2024-02-15T10:52:36;4.78;;;2.53;;
83094;SDS011;72967;43.674;6.976;2024-02-15T10:55:10;3.97;;;1.98;;
83094;SDS011;72967;43.674;6.976;2024-02-15T10:57:39;9.23;;;2.95;;
83094;SDS011;72967;43.674;6.976;2024-02-15T11:00:11;4.63;;;2.10;;
83094;SDS011;72967;43.674;6.976;2024-02-15T11:03:00;3.80;;;2.00;;
83094;SDS011;72967;43.674;6.976;2024-02-15T11:05:34;3.17;;;1.98;;
83094;SDS011;72967;43.674;6.976;2024-02-15T11:08:03;4.47;;;2.50;;
83094;SDS011;72967;43.674;6.976;2024-02-15T11:10:31;5.68;;;2.13;;
83094;SDS011;72967;43.674;6.976;2024-02-15T11:12:57;2.25;;;1.75;;
83094;SDS011;72967;43.674;6.976;2024-02-15T11:18:02;3.60;;;2.00;;
83094;SDS011;72967;43.674;6.976;2024-02-15T11:23:02;3.65;;;1.95;;
83094;SDS011;72967;43.674;6.976;2024-02-15T11:28:32;3.90;;;2.20;;
83094;SDS011;72967;43.674;6.976;2024-02-15T11:30:47;5.30;;;2.00;;
83094;SDS011;72967;43.674;6.976;2024-02-15T11:33:27;6.65;;;2.05;;
83094;SDS011;72967;43.674;6.976;2024-02-15T11:38:30;3.45;;;2.60;;
83094;SDS011;72967;43.674;6.976;2024-02-15T11:40:59;4.18;;;2.03;;
83094;SDS011;72967;43.674;6.976;2024-02-15T11:43:45;5.43;;;2.00;;
83094;SDS011;72967;43.674;6.976;2024-02-15T11:46:15;3.67;;;2.13;;
83094;SDS011;72967;43.674;6.976;2024-02-15T11:48:44;3.85;;;2.20;;
83094;SDS011;72967;43.674;6.976;2024-02-15T11:51:24;4.05;;;1.90;;
83094;SDS011;72967;43.674;6.976;2024-02-15T11:54:02;2.63;;;1.98;;
83094;SDS011;72967;43.674;6.976;2024-02-15T11:56:31;3.80;;;2.15;;
83094;SDS011;72967;43.674;6.976;2024-02-15T11:59:08;4.88;;;2.47;;
83094;SDS011;72967;43.674;6.976;2024-02-15T12:01:37;3.90;;;2.70;;
83094;SDS011;72967;43.674;6.976;2024-02-15T12:04:21;4.38;;;2.70;;
83094;SDS011;72967;43.674;6.976;2024-02-15T12:07:08;3.60;;;1.88;;
83094;SDS011;72967;43.674;6.976;2024-02-15T12:09:58;8.32;;;2.50;;
83094;SDS011;72967;43.674;6.976;2024-02-15T12:12:50;6.90;;;2.47;;
83094;SDS011;72967;43.674;6.976;2024-02-15T12:15:55;5.47;;;2.35;;
83094;SDS011;72967;43.674;6.976;2024-02-15T12:18:40;5.63;;;2.50;;
83094;SDS011;72967;43.674;6.976;2024-02-15T12:21:09;6.40;;;3.00;;
83094;SDS011;72967;43.674;6.976;2024-02-15T12:23:38;2.83;;;2.22;;
83094;SDS011;72967;43.674;6.976;2024-02-15T12:26:06;4.25;;;2.28;;
83094;SDS011;72967;43.674;6.976;2024-02-15T12:28:32;3.55;;;2.03;;
83094;SDS011;72967;43.674;6.976;2024-02-15T12:31:00;5.18;;;2.20;;
83094;SDS011;72967;43.674;6.976;2024-02-15T12:33:27;7.07;;;2.25;;
83094;SDS011;72967;43.674;6.976;2024-02-15T12:36:03;5.50;;;2.20;;
83094;SDS011;72967;43.674;6.976;2024-02-15T12:38:30;4.25;;;2.10;;
83094;SDS011;72967;43.674;6.976;2024-02-15T12:40:56;7.05;;;2.08;;
83094;SDS011;72967;43.674;6.976;2024-02-15T12:43:21;4.47;;;2.28;;
83094;SDS011;72967;43.674;6.976;2024-02-15T12:45:47;3.80;;;2.00;;
83094;SDS011;72967;43.674;6.976;2024-02-15T12:48:12;2.75;;;2.03;;
83094;SDS011;72967;43.674;6.976;2024-02-15T12:50:40;3.60;;;2.60;;
83094;SDS011;72967;43.674;6.976;2024-02-15T12:53:06;5.55;;;2.25;;
83094;SDS011;72967;43.674;6.976;2024-02-15T12:55:33;6.53;;;2.70;;
83094;SDS011;72967;43.674;6.976;2024-02-15T12:58:03;5.90;;;1.92;;
83094;SDS011;72967;43.674;6.976;2024-02-15T13:00:33;5.97;;;2.63;;
83094;SDS011;72967;43.674;6.976;2024-02-15T13:03:05;3.65;;;2.17;;
83094;SDS011;72967;43.674;6.976;2024-02-15T13:05:34;4.97;;;2.17;;
83094;SDS011;72967;43.674;6.976;2024-02-15T13:08:03;4.28;;;2.03;;
83094;SDS011;72967;43.674;6.976;2024-02-15T13:10:38;3.10;;;1.95;;
83094;SDS011;72967;43.674;6.976;2024-02-15T13:13:04;6.03;;;2.10;;
83094;SDS011;72967;43.674;6.976;2024-02-15T13:15:30;2.88;;;1.90;;
83094;SDS011;72967;43.674;6.976;2024-02-15T13:17:59;7.05;;;2.28;;
83094;SDS011;72967;43.674;6.976;2024-02-15T13:20:26;6.25;;;2.15;;
83094;SDS011;72967;43.674;6.976;2024-02-15T13:22:58;3.65;;;2.40;;
83094;SDS011;72967;43.674;6.976;2024-02-15T13:25:28;3.90;;;1.98;;
83094;SDS011;72967;43.674;6.976;2024-02-15T13:27:55;4.40;;;2.30;;
83094;SDS011;72967;43.674;6.976;2024-02-15T13:30:20;4.00;;;2.50;;
83094;SDS011;72967;43.674;6.976;2024-02-15T13:32:49;5.68;;;2.72;;
83094;SDS011;72967;43.674;6.976;2024-02-15T13:35:17;5.32;;;2.53;;
83094;SDS011;72967;43.674;6.976;2024-02-15T13:37:51;3.72;;;2.85;;
83094;SDS011;72967;43.674;6.976;2024-02-15T13:40:23;4.30;;;2.17;;
83094;SDS011;72967;43.674;6.976;2024-02-15T13:42:50;4.70;;;2.30;;
83094;SDS011;72967;43.674;6.976;2024-02-15T13:47:57;5.13;;;1.85;;
83094;SDS011;72967;43.674;6.976;2024-02-15T13:50:23;8.27;;;1.90;;
83094;SDS011;72967;43.674;6.976;2024-02-15T13:52:49;4.40;;;2.45;;
83094;SDS011;72967;43.674;6.976;2024-02-15T13:55:18;3.45;;;2.05;;
83094;SDS011;72967;43.674;6.976;2024-02-15T13:57:45;5.30;;;2.47;;
83094;SDS011;72967;43.674;6.976;2024-02-15T14:00:12;4.97;;;1.70;;
83094;SDS011;72967;43.674;6.976;2024-02-15T14:02:53;4.05;;;1.90;;
83094;SDS011;72967;43.674;6.976;2024-02-15T14:05:21;4.75;;;2.33;;
83094;SDS011;72967;43.674;6.976;2024-02-15T14:07:50;4.82;;;2.00;;
83094;SDS011;72967;43.674;6.976;2024-02-15T14:10:20;5.10;;;2.15;;
83094;SDS011;72967;43.674;6.976;2024-02-15T14:12:51;5.10;;;2.13;;
83094;SDS011;72967;43.674;6.976;2024-02-15T14:15:20;12.40;;;3.83;;
83094;SDS011;72967;43.674;6.976;2024-02-15T14:17:46;5.43;;;2.30;;
83094;SDS011;72967;43.674;6.976;2024-02-15T14:20:11;6.50;;;2.30;;
83094;SDS011;72967;43.674;6.976;2024-02-15T14:22:41;5.10;;;2.25;;
83094;SDS011;72967;43.674;6.976;2024-02-15T14:25:09;5.50;;;2.50;;
83094;SDS011;72967;43.674;6.976;2024-02-15T14:27:37;7.57;;;2.25;;
83094;SDS011;72967;43.674;6.976;2024-02-15T14:30:04;5.88;;;2.13;;
83094;SDS011;72967;43.674;6.976;2024-02-15T14:32:49;6.82;;;2.08;;
83094;SDS011;72967;43.674;6.976;2024-02-15T14:35:33;3.65;;;2.45;;
83094;SDS011;72967;43.674;6.976;2024-02-15T14:38:00;4.72;;;2.28;;
83094;SDS011;72967;43.674;6.976;2024-02-15T14:40:35;2.55;;;1.75;;
83094;SDS011;72967;43.674;6.976;2024-02-15T14:43:02;6.53;;;2.40;;
83094;SDS011;72967;43.674;6.976;2024-02-15T14:45:29;6.25;;;2.10;;
83094;SDS011;72967;43.674;6.976;2024-02-15T14:47:59;7.13;;;2.25;;
83094;SDS011;72967;43.674;6.976;2024-02-15T14:50:25;2.78;;;2.40;;
83094;SDS011;72967;43.674;6.976;2024-02-15T14:52:51;3.83;;;2.40;;
83094;SDS011;72967;43.674;6.976;2024-02-15T14:55:18;7.55;;;3.15;;
83094;SDS011;72967;43.674;6.976;2024-02-15T14:57:44;6.70;;;3.38;;
83094;SDS011;72967;43.674;6.976;2024-02-15T15:00:10;5.88;;;2.38;;
83094;SDS011;72967;43.674;6.976;2024-02-15T15:02:39;5.50;;;2.70;;
83094;SDS011;72967;43.674;6.976;2024-02-15T15:05:06;5.88;;;3.03;;
83094;SDS011;72967;43.674;6.976;2024-02-15T15:07:51;8.82;;;4.00;;
83094;SDS011;72967;43.674;6.976;2024-02-15T15:10:35;6.80;;;2.70;;
83094;SDS011;72967;43.674;6.976;2024-02-15T15:13:19;8.43;;;3.60;;
83094;SDS011;72967;43.674;6.976;2024-02-15T15:15:44;6.47;;;2.80;;
83094;SDS011;72967;43.674;6.976;2024-02-15T15:18:11;6.88;;;2.83;;
83094;SDS011;72967;43.674;6.976;2024-02-15T15:20:37;3.90;;;2.83;;